Austin, UT

10:31 PM MDT on August 24, 2016 (GMT -0600)
Putter Butt Farms | | Change Station

Elev 5322 ft 38.65 °N, 112.14 °W | Updated 2 seconds ago

Clear
Clear
59.3 °F
Feels Like 59.3 °F
N
0.0
Wind Variable Wind from NW
Gusts 0.0 mph

Today
High -- | Low -- °F
--% Chance of Precip.
Yesterday
High -- | Low -- °F
Precip. -- in
Pressure 29.90 in
Visibility 10.0 miles
Clouds Clear
Dew Point 39 °F
Humidity 47%
Rainfall 0.00 in
Snow Depth Not available.
6:51 AM 8:09 PM
Waning Gibbous, 50% visible
METAR KMLF 250352Z AUTO 34010KT 10SM CLR 21/03 A3008 RMK AO2 SLP124 T02060033
Pressure 29.90 in
Visibility 10.0 miles
Clouds Clear
Dew Point 39 °F
Humidity 47%
Rainfall 0.00 in
Snow Depth Not available.
6:51 AM 8:09 PM
Waning Gibbous, 50% visible
METAR KMLF 250352Z AUTO 34010KT 10SM CLR 21/03 A3008 RMK AO2 SLP124 T02060033

10-Day Weather Forecast

Almanac

Astronomy

Aug. 24, 2016 Rise Set
Actual Time
Civil Twilight
Nautical Twilight
Astronomical Twilight
Moon
Length of Visible Light
Length of Day
Tomorrow will be .
, % of the Moon is Illuminated

Today's Extremes

State Highs State Lows

Community

WunderPhotos

Upload Photos

1,934,796 photos uploaded!

WunderBlog® & News

Nearby

Air Quality

  Air Quality AQ Index Pollutant
Not available.

Snow Depth

Station Depth Elevation

Earthquake Activity

City Distance Mag. Time & Date
Minimum magnitude displayed is 2.5.

Coastal Water Temperatures

Place Temperature

Stations

Nearby Weather Stations

Station Location Temp. Windchill Dew Point Humidity Wind Precip. Elev Updated Type
                   

Watches & Warnings

There are currently no watches in effect.